Time;durP1;ratioP1;P1;durP2;ratioP2;P2;SDS_P1;SDS_P2;PMS_P1;PMS_P2;Temp;Humidity;BMP_temperature;BMP_pressure;BME280_temperature;BME280_humidity;BME280_pressure;Samples;Min_cycle;Max_cycle;Signal;HPM_P1;HPM_P2
2021/03/28 00:01:05;;;;;;;67.53;33.50;;;8.50;55.70;;;;;;5014362;28;20033;-77
2021/03/28 00:03:36;;;;;;;72.80;33.58;;;8.40;55.70;;;;;;5014712;28;20525;-77
2021/03/28 00:06:33;;;;;;;66.60;33.28;;;8.40;55.60;;;;;;5014050;28;20050;-78
2021/03/28 00:09:10;;;;;;;62.53;32.85;;;8.30;55.80;;;;;;5014372;28;20037;-78
2021/03/28 00:11:50;;;;;;;68.78;34.03;;;8.30;55.90;;;;;;5014610;28;20022;-78
2021/03/28 00:14:21;;;;;;;61.35;31.85;;;8.30;55.90;;;;;;5014710;28;20029;-77
2021/03/28 00:16:48;;;;;;;58.22;30.42;;;8.20;56.00;;;;;;5014080;28;20386;-77
2021/03/28 00:19:27;;;;;;;65.85;31.35;;;8.20;56.10;;;;;;5014244;28;20079;-77
2021/03/28 00:21:57;;;;;;;64.68;33.13;;;8.20;56.30;;;;;;5013737;28;20034;-77
2021/03/28 00:24:29;;;;;;;62.92;30.48;;;8.20;56.20;;;;;;5014798;28;20443;-78
2021/03/28 00:27:22;;;;;;;55.45;30.67;;;8.20;56.30;;;;;;5014089;28;20030;-76
2021/03/28 00:30:20;;;;;;;64.25;32.90;;;8.20;56.40;;;;;;5014444;28;20093;-77
2021/03/28 00:32:51;;;;;;;65.10;33.38;;;8.20;56.40;;;;;;5013856;28;20034;-77
2021/03/28 00:35:24;;;;;;;65.25;33.10;;;8.20;56.20;;;;;;5013940;28;20037;-79
2021/03/28 00:38:20;;;;;;;59.28;30.70;;;8.10;56.30;;;;;;4993928;28;20461;-77
2021/03/28 00:41:07;;;;;;;61.33;30.23;;;8.10;56.40;;;;;;4994057;28;20032;-77
2021/03/28 00:43:44;;;;;;;64.72;32.38;;;8.10;56.40;;;;;;4994020;28;20037;-76
2021/03/28 00:46:23;;;;;;;59.85;32.65;;;8.10;57.10;;;;;;4999077;28;20109;-76
2021/03/28 00:48:53;;;;;;;66.25;33.13;;;8.10;56.50;;;;;;5013935;28;20036;-77
2021/03/28 00:51:23;;;;;;;63.45;33.50;;;8.10;56.50;;;;;;5013612;28;20384;-77
2021/03/28 00:53:59;;;;;;;66.15;33.50;;;8.00;56.50;;;;;;5013255;28;20112;-77
2021/03/28 00:56:41;;;;;;;68.88;35.17;;;8.00;56.70;;;;;;5013576;28;20026;-76
2021/03/28 00:59:30;;;;;;;64.15;33.50;;;7.90;56.70;;;;;;5012748;28;20365;-77
2021/03/28 01:02:10;;;;;;;76.32;37.80;;;7.90;56.80;;;;;;5013411;28;20053;-76
2021/03/28 01:04:45;;;;;;;77.05;37.88;;;7.90;56.90;;;;;;4994056;28;20074;-77
2021/03/28 01:07:28;;;;;;;;;;;7.90;56.90;;;;;;4994382;28;20080;-78
2021/03/28 01:09:57;;;;;;;65.63;36.53;;;7.80;56.60;;;;;;4993879;28;19905;-76
2021/03/28 01:13:03;;;;;;;74.70;36.70;;;7.80;56.50;;;;;;4994652;28;20034;-76
2021/03/28 01:15:50;;;;;;;75.80;38.45;;;7.70;56.90;;;;;;4993961;28;20033;-75
2021/03/28 01:18:40;;;;;;;74.13;36.83;;;7.60;57.10;;;;;;4993564;28;20054;-76
2021/03/28 01:21:38;;;;;;;75.18;36.83;;;7.50;57.30;;;;;;4994030;28;20058;-77
2021/03/28 01:24:26;;;;;;;75.90;39.03;;;7.50;57.50;;;;;;4993668;28;20367;-77
2021/03/28 01:27:32;;;;;;;87.97;43.53;;;7.40;57.70;;;;;;4993737;28;20030;-77
2021/03/28 01:30:10;;;;;;;80.03;41.95;;;7.40;57.80;;;;;;4970587;28;20050;-77
2021/03/28 01:32:39;;;;;;;82.28;38.58;;;7.40;58.00;;;;;;4993755;28;20034;-77
2021/03/28 01:35:10;;;;;;;78.13;40.28;;;7.40;58.00;;;;;;4992663;28;20380;-77
2021/03/28 01:37:51;;;;;;;81.07;39.55;;;7.30;58.10;;;;;;4993936;28;20094;-77
2021/03/28 01:40:29;;;;;;;77.82;38.45;;;7.30;58.30;;;;;;4993706;28;20038;-77
2021/03/28 01:43:26;;;;;;;70.43;36.85;;;7.20;58.30;;;;;;4993322;28;20031;-77
2021/03/28 01:46:04;;;;;;;84.85;37.30;;;7.20;58.50;;;;;;4996242;28;20035;-78
2021/03/28 01:48:48;;;;;;;72.20;37.72;;;7.10;58.50;;;;;;4997121;28;20033;-77
2021/03/28 01:51:41;;;;;;;76.75;38.55;;;7.10;58.60;;;;;;4997992;28;20033;-77
2021/03/28 01:54:18;;;;;;;80.22;38.67;;;7.10;58.80;;;;;;4997406;28;20392;-77
2021/03/28 01:57:18;;;;;;;81.13;39.38;;;7.00;58.90;;;;;;4996752;28;20073;-77
2021/03/28 01:59:53;;;;;;;89.00;44.00;;;7.00;59.20;;;;;;4986621;28;20391;-76
2021/03/28 02:02:42;;;;;;;83.22;41.17;;;6.90;59.00;;;;;;4997041;28;20053;-77
2021/03/28 02:05:18;;;;;;;87.82;42.88;;;6.90;59.30;;;;;;4996834;28;20041;-77
2021/03/28 02:07:56;;;;;;;86.05;41.85;;;6.90;59.30;;;;;;4996053;28;20034;-77
2021/03/28 02:10:52;;;;;;;94.10;48.20;;;6.90;59.60;;;;;;4997313;28;20030;-77
2021/03/28 02:13:56;;;;;;;92.43;45.95;;;6.90;59.70;;;;;;4997114;28;20034;-76
2021/03/28 02:16:27;;;;;;;92.00;44.67;;;6.90;59.80;;;;;;4997007;28;20038;-77
2021/03/28 02:19:14;;;;;;;89.95;45.05;;;6.90;59.70;;;;;;4995541;28;20031;-77
2021/03/28 02:21:53;;;;;;;91.78;46.90;;;6.90;60.00;;;;;;4996743;28;20037;-77
2021/03/28 02:24:41;;;;;;;96.40;45.63;;;6.90;59.90;;;;;;4996652;28;20038;-76
2021/03/28 02:27:14;;;;;;;92.18;45.70;;;6.90;59.90;;;;;;4996261;28;20237;-77
2021/03/28 02:29:49;;;;;;;89.88;46.63;;;6.90;59.70;;;;;;4996790;28;20113;-77
2021/03/28 02:32:21;;;;;;;84.30;44.42;;;6.90;59.80;;;;;;4996548;28;20031;-77
2021/03/28 02:34:55;;;;;;;92.35;46.10;;;6.80;59.70;;;;;;4996985;28;20117;-76
2021/03/28 02:37:44;;;;;;;87.82;44.42;;;6.70;60.00;;;;;;4996200;28;20480;-79
2021/03/28 02:40:39;;;;;;;89.38;44.25;;;6.70;60.30;;;;;;4996717;28;20065;-78
2021/03/28 02:43:28;;;;;;;92.55;44.58;;;6.60;60.30;;;;;;4996830;28;20035;-78
2021/03/28 02:46:14;;;;;;;88.35;44.08;;;6.60;60.50;;;;;;4996400;28;20483;-78
2021/03/28 02:49:11;;;;;;;88.47;42.58;;;6.60;60.60;;;;;;4996932;28;20097;-78
2021/03/28 02:51:58;;;;;;;90.05;42.20;;;6.60;60.70;;;;;;4979722;28;20042;-77
2021/03/28 02:54:51;;;;;;;88.97;42.65;;;6.60;60.70;;;;;;4995770;28;20031;-77
2021/03/28 02:57:48;;;;;;;91.20;43.33;;;6.60;60.70;;;;;;4995355;28;20037;-77
2021/03/28 03:00:44;;;;;;;81.80;42.53;;;6.60;60.80;;;;;;4995822;28;20026;-77
2021/03/28 03:03:47;;;;;;;90.10;44.20;;;6.60;60.80;;;;;;4995679;28;20049;-77
2021/03/28 03:06:32;;;;;;;93.85;42.70;;;6.60;60.80;;;;;;4995727;28;20058;-76
2021/03/28 03:09:00;;;;;;;83.45;41.63;;;6.60;60.60;;;;;;4995611;28;20033;-76
2021/03/28 03:11:53;;;;;;;87.45;42.80;;;6.70;61.30;;;;;;5011231;28;20092;-77
2021/03/28 03:14:52;;;;;;;82.32;41.63;;;6.60;60.80;;;;;;5015490;28;20041;-77
2021/03/28 03:17:50;;;;;;;89.13;42.65;;;6.60;60.80;;;;;;5015454;28;20040;-77
2021/03/28 03:20:25;;;;;;;84.30;40.38;;;6.60;60.80;;;;;;5015344;28;20036;-77
2021/03/28 03:23:00;;;;;;;83.20;39.30;;;6.60;60.80;;;;;;5015155;28;20038;-77
2021/03/28 03:26:03;;;;;;;79.35;41.33;;;6.50;60.80;;;;;;5014912;28;20030;-76
2021/03/28 03:28:47;;;;;;;93.97;43.20;;;6.50;60.90;;;;;;5013957;28;20388;-77
2021/03/28 03:31:25;;;;;;;92.82;45.83;;;6.50;60.80;;;;;;5015119;28;20033;-77
2021/03/28 03:34:13;;;;;;;94.55;48.17;;;6.50;60.80;;;;;;5015636;28;20029;-77
2021/03/28 03:36:39;;;;;;;96.40;45.30;;;6.50;61.10;;;;;;4995374;28;20030;-77
2021/03/28 03:39:26;;;;;;;91.65;44.65;;;6.40;61.00;;;;;;4995929;28;20040;-77
2021/03/28 03:42:12;;;;;;;80.22;39.72;;;6.50;61.30;;;;;;4995955;28;20117;-77
2021/03/28 03:44:56;;;;;;;85.07;43.50;;;6.40;61.20;;;;;;4996278;28;20488;-77
2021/03/28 03:47:34;;;;;;;92.85;44.03;;;6.40;61.10;;;;;;5008382;28;20076;-77
2021/03/28 03:50:18;;;;;;;81.40;40.45;;;6.40;61.30;;;;;;5015550;28;20077;-77
2021/03/28 03:52:58;;;;;;;86.75;40.45;;;6.40;61.40;;;;;;5015900;28;20472;-77
2021/03/28 03:55:43;;;;;;;76.47;39.83;;;6.40;61.30;;;;;;5015121;28;20077;-77
2021/03/28 03:58:18;;;;;;;87.35;43.00;;;6.40;61.30;;;;;;5015009;28;20423;-77
2021/03/28 04:01:13;;;;;;;93.97;47.75;;;6.40;61.50;;;;;;5014537;28;20080;-77
2021/03/28 04:04:03;;;;;;;99.60;49.50;;;6.40;61.60;;;;;;5014404;28;20357;-77
2021/03/28 04:06:35;;;;;;;89.65;46.00;;;6.40;61.60;;;;;;5014831;28;20032;-77
2021/03/28 04:09:16;;;;;;;91.35;46.28;;;6.40;61.40;;;;;;5013044;28;20160;-77
2021/03/28 04:11:58;;;;;;;85.80;42.45;;;6.40;61.30;;;;;;5015185;28;20026;-77
2021/03/28 04:14:29;;;;;;;79.95;41.80;;;6.40;61.40;;;;;;5014551;28;20025;-77
2021/03/28 04:17:13;;;;;;;79.22;39.38;;;6.40;61.40;;;;;;5014975;28;20026;-79
2021/03/28 04:19:45;;;;;;;81.68;38.92;;;6.40;61.40;;;;;;5014063;28;20110;-79
2021/03/28 04:22:57;;;;;;;80.93;40.33;;;6.50;61.30;;;;;;5014040;28;20490;-77
2021/03/28 04:25:47;;;;;;;82.28;39.65;;;6.50;61.50;;;;;;5014541;28;20030;-77
2021/03/28 04:28:46;;;;;;;79.07;40.90;;;6.50;61.40;;;;;;5014294;28;20058;-77
2021/03/28 04:31:33;;;;;;;90.50;48.40;;;6.50;61.30;;;;;;5013919;28;20379;-77
2021/03/28 04:34:02;;;;;;;91.75;47.80;;;6.60;61.30;;;;;;5014076;28;20029;-75
2021/03/28 04:36:33;;;;;;;92.65;47.03;;;6.60;61.10;;;;;;5014616;28;20057;-77
2021/03/28 04:39:02;;;;;;;87.75;44.65;;;6.60;61.10;;;;;;5013756;28;20033;-77
2021/03/28 04:41:45;;;;;;;86.97;44.08;;;6.60;61.10;;;;;;5013910;28;20037;-77
2021/03/28 04:44:50;;;;;;;83.82;42.83;;;6.60;61.10;;;;;;5013968;28;20042;-78
2021/03/28 04:47:25;;;;;;;86.80;43.65;;;6.70;61.30;;;;;;5013638;28;20105;-77
2021/03/28 04:50:02;;;;;;;94.53;44.25;;;6.70;61.20;;;;;;5013549;28;20026;-79
2021/03/28 04:52:50;;;;;;;86.00;44.30;;;6.70;61.20;;;;;;5013901;28;20034;-77
2021/03/28 04:55:45;;;;;;;95.40;45.58;;;6.90;61.20;;;;;;5013286;28;20026;-77
2021/03/28 04:58:25;;;;;;;90.68;44.80;;;6.90;61.10;;;;;;5013788;28;20032;-76
2021/03/28 05:01:35;;;;;;;86.90;45.58;;;7.00;60.90;;;;;;5013656;28;20128;-77
2021/03/28 05:04:24;;;;;;;87.45;44.22;;;7.00;60.90;;;;;;5003160;28;20053;-77
2021/03/28 05:07:05;;;;;;;89.97;44.05;;;7.10;60.70;;;;;;5013837;28;20036;-77
2021/03/28 05:09:48;;;;;;;86.45;42.67;;;7.10;60.70;;;;;;5013537;28;20029;-78
2021/03/28 05:12:17;;;;;;;82.03;41.63;;;7.20;60.60;;;;;;5013914;28;20121;-78
2021/03/28 05:14:42;;;;;;;87.07;42.78;;;7.30;60.50;;;;;;5013298;28;20530;-80
2021/03/28 05:17:42;;;;;;;76.00;40.67;;;7.30;60.40;;;;;;5013300;28;20030;-77
2021/03/28 05:20:53;;;;;;;80.32;40.33;;;7.40;60.50;;;;;;5015046;28;20025;-77
2021/03/28 05:23:18;;;;;;;88.47;43.03;;;7.50;60.30;;;;;;5017390;28;20116;-77
2021/03/28 05:25:47;;;;;;;84.75;44.13;;;7.60;60.20;;;;;;5017675;28;20022;-77
2021/03/28 05:28:31;;;;;;;83.93;41.67;;;7.70;60.20;;;;;;5017169;28;20022;-78
2021/03/28 05:31:34;;;;;;;70.18;38.03;;;7.80;60.10;;;;;;5017203;28;20040;-78
2021/03/28 05:34:29;;;;;;;69.82;35.53;;;7.90;59.70;;;;;;5015360;28;20034;-78
2021/03/28 05:37:19;;;;;;;65.03;34.97;;;8.00;59.30;;;;;;4980740;28;20512;-77
2021/03/28 05:39:54;;;;;;;66.38;36.65;;;8.10;59.10;;;;;;5017129;28;20121;-77
2021/03/28 05:42:25;;;;;;;;;;;8.10;59.00;;;;;;5017508;28;20068;-78
2021/03/28 05:44:59;;;;;;;66.07;35.70;;;8.20;58.90;;;;;;5017306;28;19906;-78
2021/03/28 05:47:51;;;;;;;60.65;34.17;;;8.30;58.70;;;;;;5016881;28;20068;-77
2021/03/28 05:50:39;;;;;;;63.47;33.30;;;8.40;58.70;;;;;;5018264;28;20034;-77
2021/03/28 05:53:42;;;;;;;58.78;31.70;;;8.50;58.60;;;;;;5018218;28;20054;-76
2021/03/28 05:56:16;;;;;;;62.00;31.80;;;8.70;58.50;;;;;;5016783;28;20499;-78
2021/03/28 05:59:12;;;;;;;65.85;32.40;;;8.90;58.20;;;;;;5017159;28;20053;-78
2021/03/28 06:02:09;;;;;;;59.08;29.15;;;9.10;58.00;;;;;;5017099;28;20049;-79
2021/03/28 06:04:51;;;;;;;53.85;28.13;;;9.30;57.50;;;;;;5017597;28;20095;-77
2021/03/28 06:07:54;;;;;;;58.53;29.27;;;9.50;57.20;;;;;;5025347;28;20076;-77
2021/03/28 06:10:48;;;;;;;55.78;29.48;;;9.70;56.70;;;;;;5025357;28;20115;-78
2021/03/28 06:13:51;;;;;;;51.05;27.63;;;9.90;56.20;;;;;;4996658;28;20053;-78
2021/03/28 06:16:42;;;;;;;51.70;28.25;;;10.10;55.80;;;;;;5016618;28;20444;-78
2021/03/28 06:19:35;;;;;;;54.72;28.33;;;10.30;55.40;;;;;;5016755;28;20353;-77
2021/03/28 06:22:00;;;;;;;51.80;29.08;;;10.50;55.00;;;;;;5016679;28;20380;-77
2021/03/28 06:24:44;;;;;;;48.20;26.75;;;10.60;54.80;;;;;;5016088;28;20092;-77
2021/03/28 06:27:21;;;;;;;55.65;27.67;;;10.80;54.30;;;;;;5022935;28;20030;-79
2021/03/28 06:30:24;;;;;;;51.90;26.38;;;11.00;53.90;;;;;;5024427;28;20029;-78
2021/03/28 06:33:14;;;;;;;42.92;25.35;;;11.20;53.40;;;;;;5023825;28;20722;-78
2021/03/28 06:35:58;;;;;;;49.15;26.05;;;11.40;52.90;;;;;;5024159;28;20531;-80
2021/03/28 06:39:01;;;;;;;58.17;27.37;;;11.60;52.30;;;;;;5023282;28;20033;-78
2021/03/28 06:41:54;;;;;;;51.70;27.60;;;11.80;52.00;;;;;;5025490;28;20030;-78
2021/03/28 06:44:44;;;;;;;44.00;25.35;;;11.90;51.60;;;;;;5002589;28;20037;-78
2021/03/28 06:47:25;;;;;;;53.72;27.70;;;12.10;51.30;;;;;;5022235;28;20018;-78
2021/03/28 06:50:15;;;;;;;56.08;28.48;;;12.20;50.80;;;;;;5024633;28;20384;-79
2021/03/28 06:53:03;;;;;;;47.78;27.17;;;12.40;50.50;;;;;;5024469;28;20041;-78
2021/03/28 06:55:37;;;;;;;55.15;28.58;;;12.50;49.90;;;;;;5024032;28;20037;-77
2021/03/28 06:58:25;;;;;;;46.72;24.80;;;12.70;49.70;;;;;;5023316;28;20029;-77
2021/03/28 07:01:29;;;;;;;46.33;23.88;;;12.80;49.30;;;;;;5018797;28;20088;-79
2021/03/28 07:04:32;;;;;;;40.10;23.70;;;13.00;48.80;;;;;;5024064;28;20033;-78
2021/03/28 07:07:13;;;;;;;45.08;23.60;;;13.20;48.60;;;;;;5020845;28;20472;-78
2021/03/28 07:10:12;;;;;;;40.13;22.95;;;13.40;48.30;;;;;;5020973;28;20026;-78
2021/03/28 07:12:56;;;;;;;43.70;23.25;;;13.50;47.80;;;;;;5020388;28;20033;-78
2021/03/28 07:15:57;;;;;;;42.50;22.93;;;13.70;47.50;;;;;;5022240;28;20371;-79
2021/03/28 07:18:47;;;;;;;47.67;25.88;;;13.90;47.10;;;;;;5024369;28;20032;-77
2021/03/28 07:21:44;;;;;;;43.45;23.30;;;14.10;46.80;;;;;;5024466;28;20405;-79
2021/03/28 07:24:35;;;;;;;39.28;23.58;;;14.30;46.50;;;;;;5023258;28;20034;-78
2021/03/28 07:27:16;;;;;;;40.17;22.80;;;14.50;46.30;;;;;;5023139;28;20029;-78
2021/03/28 07:30:09;;;;;;;38.95;22.38;;;14.70;46.60;;;;;;5020338;28;20414;-78
2021/03/28 07:32:50;;;;;;;40.38;22.25;;;15.00;45.30;;;;;;5024259;28;20021;-78
2021/03/28 07:35:28;;;;;;;37.17;21.55;;;15.30;45.20;;;;;;5024857;28;20021;-78
2021/03/28 07:38:05;;;;;;;38.70;22.52;;;15.50;44.70;;;;;;5023749;28;20029;-78
2021/03/28 07:40:57;;;;;;;42.55;28.70;;;15.80;44.10;;;;;;5027426;28;20036;-78
2021/03/28 07:43:46;;;;;;;54.58;30.25;;;16.00;43.80;;;;;;5034423;28;20091;-78
2021/03/28 07:46:35;;;;;;;52.60;31.83;;;16.30;43.70;;;;;;5024212;28;20486;-79
2021/03/28 07:49:17;;;;;;;62.25;34.60;;;16.50;43.50;;;;;;5020386;28;20022;-78
2021/03/28 07:51:48;;;;;;;53.65;33.63;;;16.80;43.40;;;;;;5020424;28;20426;-77
2021/03/28 07:54:36;;;;;;;55.55;31.70;;;17.00;43.10;;;;;;5022097;28;20041;-79
2021/03/28 07:57:35;;;;;;;47.13;28.95;;;17.20;42.60;;;;;;5022772;28;20021;-78
2021/03/28 08:00:25;;;;;;;52.00;27.55;;;17.40;42.30;;;;;;5020333;28;20062;-78
2021/03/28 08:03:15;;;;;;;45.90;26.98;;;17.60;41.90;;;;;;5023194;28;20046;-78
2021/03/28 08:05:59;;;;;;;43.45;25.20;;;17.90;41.50;;;;;;5016543;28;20048;-78
2021/03/28 08:08:43;;;;;;;38.63;23.05;;;18.20;41.10;;;;;;5021981;28;20033;-78
2021/03/28 08:11:23;;;;;;;35.33;21.90;;;18.40;40.90;;;;;;5022597;28;20080;-79
2021/03/28 08:14:18;;;;;;;32.95;20.98;;;18.70;40.30;;;;;;5025291;28;20140;-78
2021/03/28 08:17:08;;;;;;;;;;;19.00;39.50;;;;;;5034982;28;20025;-78
2021/03/28 08:19:57;;;;;;;36.30;21.08;;;19.40;40.10;;;;;;5034375;28;19909;-78
2021/03/28 08:22:52;;;;;;;37.00;20.75;;;19.70;39.10;;;;;;5033933;28;20029;-77
2021/03/28 08:25:48;;;;;;;31.20;19.15;;;20.00;37.90;;;;;;5034108;28;20033;-77
2021/03/28 08:28:48;;;;;;;35.83;19.98;;;20.40;37.40;;;;;;5034082;28;20452;-77
2021/03/28 08:31:38;;;;;;;40.05;19.33;;;20.90;36.80;;;;;;5033429;28;20057;-78
2021/03/28 08:34:54;;;;;;;31.15;18.38;;;21.50;36.70;;;;;;5032773;28;20037;-78
2021/03/28 08:37:40;;;;;;;26.67;17.25;;;22.40;36.30;;;;;;5016655;28;20043;-78
2021/03/28 08:40:27;;;;;;;26.42;18.30;;;23.40;35.30;;;;;;5034024;28;20472;-77
2021/03/28 08:43:21;;;;;;;30.33;18.15;;;24.30;34.10;;;;;;5033716;28;20034;-77
2021/03/28 08:46:24;;;;;;;27.08;18.27;;;25.20;33.40;;;;;;5016062;28;20090;-77
2021/03/28 08:49:10;;;;;;;26.95;18.10;;;26.20;32.50;;;;;;5021706;28;20030;-78
2021/03/28 08:51:57;;;;;;;31.23;20.50;;;27.10;31.70;;;;;;5001822;28;20056;-78
2021/03/28 08:54:41;;;;;;;46.83;25.50;;;27.80;31.20;;;;;;5018492;28;20144;-78
2021/03/28 08:57:36;;;;;;;29.58;20.13;;;28.40;30.70;;;;;;5020134;28;20468;-77
2021/03/28 09:00:22;;;;;;;;;;;29.00;29.60;;;;;;5018380;28;20018;-77
2021/03/28 09:03:09;;;;;;;27.30;18.20;;;29.50;31.30;;;;;;5020479;28;19971;-79
2021/03/28 09:06:02;;;;;;;23.08;17.60;;;30.20;29.50;;;;;;5020308;28;20752;-78
2021/03/28 09:08:47;;;;;;;33.58;20.50;;;30.60;28.80;;;;;;5018696;28;20444;-78
2021/03/28 09:11:28;;;;;;;24.63;18.23;;;31.10;28.60;;;;;;5021939;28;20079;-78
2021/03/28 09:14:29;;;;;;;25.35;17.88;;;31.40;27.90;;;;;;5022157;28;20037;-78
2021/03/28 09:16:55;;;;;;;33.03;20.52;;;31.70;27.50;;;;;;5007956;28;20041;-78
2021/03/28 09:19:26;;;;;;;37.13;20.00;;;32.10;27.60;;;;;;5020953;28;20447;-77
2021/03/28 09:22:13;;;;;;;30.10;20.75;;;32.20;27.00;;;;;;5021794;28;20029;-78
2021/03/28 09:24:45;;;;;;;26.88;18.95;;;32.50;27.00;;;;;;5023008;28;20026;-80
2021/03/28 09:28:07;;;;;;;31.95;20.63;;;32.80;26.80;;;;;;5022264;28;20037;-80
2021/03/28 09:30:59;;;;;;;24.67;18.17;;;33.10;26.60;;;;;;4960771;28;20038;-77
2021/03/28 09:33:31;;;;;;;25.75;18.15;;;33.30;26.20;;;;;;4961118;28;20048;-77
2021/03/28 09:36:17;;;;;;;28.08;18.60;;;33.40;26.20;;;;;;5009482;28;20038;-78
2021/03/28 09:38:48;;;;;;;23.17;18.27;;;33.40;25.80;;;;;;5018016;28;20105;-78
2021/03/28 09:41:22;;;;;;;28.40;18.48;;;33.50;25.70;;;;;;5022891;28;20025;-78
2021/03/28 09:44:22;;;;;;;27.23;17.48;;;33.80;25.50;;;;;;5020147;28;20034;-77
2021/03/28 09:47:25;;;;;;;27.52;18.75;;;33.90;25.40;;;;;;5017386;28;20060;-78
2021/03/28 09:50:05;;;;;;;25.80;17.80;;;34.20;25.40;;;;;;5020866;28;20108;-78
2021/03/28 09:52:40;;;;;;;28.10;19.58;;;34.50;25.20;;;;;;5020563;28;20033;-78
2021/03/28 09:55:34;;;;;;;63.63;20.35;;;34.60;25.10;;;;;;5021141;28;20460;-79
2021/03/28 09:58:07;;;;;;;49.38;18.98;;;34.70;24.90;;;;;;5022836;28;20479;-78
2021/03/28 10:00:47;;;;;;;24.77;18.20;;;34.80;24.70;;;;;;5021708;28;20029;-77
2021/03/28 10:03:22;;;;;;;23.67;18.77;;;34.80;24.60;;;;;;5021003;28;20049;-79
2021/03/28 10:05:49;;;;;;;39.47;20.67;;;34.60;24.50;;;;;;5020809;28;20502;-79
2021/03/28 10:08:18;;;;;;;29.98;20.88;;;34.50;24.30;;;;;;5023507;28;20739;-78
2021/03/28 10:11:02;;;;;;;24.75;17.58;;;34.30;24.20;;;;;;5022538;28;20025;-78
2021/03/28 10:14:02;;;;;;;22.77;17.15;;;34.30;24.20;;;;;;5022597;28;20030;-78
2021/03/28 10:16:43;;;;;;;25.10;18.40;;;34.30;24.40;;;;;;4982337;28;20034;-79
2021/03/28 10:19:36;;;;;;;32.22;19.67;;;34.50;24.40;;;;;;5023627;28;20036;-79
2021/03/28 10:22:16;;;;;;;54.05;22.83;;;34.60;24.20;;;;;;5029731;28;20043;-77
2021/03/28 10:25:19;;;;;;;30.63;18.85;;;34.80;24.20;;;;;;5029923;28;20104;-78
2021/03/28 10:27:54;;;;;;;24.50;18.67;;;35.00;24.10;;;;;;5024738;28;20033;-78
2021/03/28 10:31:12;;;;;;;39.47;22.02;;;35.30;24.00;;;;;;5020751;28;20072;-77
2021/03/28 10:33:55;;;;;;;44.00;22.08;;;35.60;24.00;;;;;;5023125;28;20050;-77
2021/03/28 10:36:49;;;;;;;26.67;22.02;;;36.00;24.10;;;;;;5025569;28;20033;-77
2021/03/28 10:39:56;;;;;;;23.80;17.90;;;36.30;23.80;;;;;;5023962;28;20033;-78
2021/03/28 10:42:28;;;;;;;30.75;20.27;;;36.20;23.60;;;;;;5019680;28;20030;-78
2021/03/28 10:45:15;;;;;;;29.00;19.65;;;36.10;23.60;;;;;;5024308;28;20017;-78
2021/03/28 10:47:59;;;;;;;29.38;21.50;;;36.20;23.50;;;;;;5025380;28;20091;-77
2021/03/28 10:50:39;;;;;;;33.47;21.52;;;36.60;23.40;;;;;;5020153;28;20431;-78
2021/03/28 10:53:08;;;;;;;31.65;21.48;;;36.80;23.40;;;;;;5021358;28;20026;-78
2021/03/28 10:55:55;;;;;;;28.95;21.23;;;37.00;23.30;;;;;;5024204;28;20109;-78
2021/03/28 10:58:59;;;;;;;44.70;23.50;;;37.00;23.30;;;;;;5025029;28;20025;-79
2021/03/28 11:02:02;;;;;;;36.13;21.23;;;36.90;23.20;;;;;;5017746;28;20046;-78
2021/03/28 11:05:06;;;;;;;33.38;22.42;;;36.80;23.20;;;;;;5015486;28;20077;-77
2021/03/28 11:07:53;;;;;;;34.70;22.17;;;36.80;23.20;;;;;;4994026;28;20057;-77
2021/03/28 11:10:53;;;;;;;33.10;23.02;;;36.70;23.10;;;;;;4993575;28;20519;-78
2021/03/28 11:13:43;;;;;;;38.00;22.95;;;36.50;23.00;;;;;;5011984;28;20103;-78
2021/03/28 11:16:36;;;;;;;34.92;23.02;;;36.30;23.60;;;;;;5015493;28;20036;-78
2021/03/28 11:19:39;;;;;;;41.07;22.80;;;36.20;23.00;;;;;;5014666;28;20026;-78
2021/03/28 11:22:15;;;;;;;36.38;22.83;;;36.20;23.10;;;;;;5014009;28;20041;-78
2021/03/28 11:25:04;;;;;;;33.63;22.73;;;36.40;23.00;;;;;;5015273;28;20033;-77
2021/03/28 11:27:32;;;;;;;31.90;22.95;;;36.50;22.90;;;;;;5014960;28;20041;-78
2021/03/28 11:30:17;;;;;;;31.45;23.35;;;36.70;23.00;;;;;;5015204;28;20383;-78
2021/03/28 11:33:01;;;;;;;44.30;24.58;;;36.80;22.90;;;;;;5015450;28;20109;-78
2021/03/28 11:35:54;;;;;;;38.80;21.80;;;37.00;22.80;;;;;;5014948;28;20061;-78
2021/03/28 11:38:19;;;;;;;30.50;22.20;;;37.10;22.80;;;;;;5014634;28;20468;-78
2021/03/28 11:41:11;;;;;;;26.17;20.10;;;37.30;22.90;;;;;;5015046;28;20100;-78
2021/03/28 11:43:50;;;;;;;34.65;22.08;;;37.40;22.70;;;;;;5010798;28;20144;-78
2021/03/28 11:46:24;;;;;;;32.70;21.42;;;37.70;22.70;;;;;;5014931;28;20038;-79
2021/03/28 11:48:53;;;;;;;80.53;24.52;;;37.80;22.60;;;;;;5014514;28;20065;-79
2021/03/28 11:51:19;;;;;;;31.50;22.98;;;38.10;22.70;;;;;;5012803;28;20040;-78
2021/03/28 11:54:06;;;;;;;30.75;22.92;;;38.30;22.60;;;;;;5014703;28;20026;-78
2021/03/28 11:56:49;;;;;;;36.28;22.15;;;38.50;22.50;;;;;;5010191;28;20399;-78
2021/03/28 11:59:22;;;;;;;;;;;38.70;22.40;;;;;;5014638;28;20041;-79
2021/03/28 12:02:03;;;;;;;26.77;19.92;;;38.60;22.80;;;;;;5014618;28;19917;-78
2021/03/28 12:04:29;;;;;;;34.95;22.23;;;38.70;22.40;;;;;;5014650;28;20459;-79
2021/03/28 12:06:59;;;;;;;27.92;20.27;;;38.60;22.40;;;;;;5014461;28;20057;-77
2021/03/28 12:09:29;;;;;;;39.38;20.35;;;38.40;22.80;;;;;;5014453;28;20108;-79
2021/03/28 12:12:12;;;;;;;28.35;19.33;;;38.10;22.10;;;;;;5014198;28;20371;-78
2021/03/28 12:14:38;;;;;;;29.88;20.10;;;37.30;22.10;;;;;;5014867;28;20088;-79
2021/03/28 12:17:10;;;;;;;46.22;20.90;;;37.10;22.40;;;;;;5014801;28;20036;-76
2021/03/28 12:19:57;;;;;;;26.38;20.65;;;37.20;22.40;;;;;;5025233;28;20033;-78
2021/03/28 12:22:37;;;;;;;26.73;19.02;;;37.50;22.30;;;;;;5032974;28;20539;-79
2021/03/28 12:25:16;;;;;;;22.85;18.73;;;37.70;22.20;;;;;;5033981;28;20101;-79
2021/03/28 12:27:56;;;;;;;28.63;19.60;;;37.60;22.30;;;;;;5034045;28;20033;-78
2021/03/28 12:30:43;;;;;;;28.85;19.15;;;37.50;22.20;;;;;;5022641;28;20388;-78
2021/03/28 12:33:21;;;;;;;23.60;18.52;;;37.50;22.20;;;;;;5014768;28;20026;-77
2021/03/28 12:35:56;;;;;;;32.50;21.00;;;37.60;22.10;;;;;;5012754;28;20530;-79
2021/03/28 12:38:31;;;;;;;23.83;18.80;;;37.80;22.10;;;;;;5013882;28;20050;-79
2021/03/28 12:41:17;;;;;;;23.60;18.35;;;37.80;22.00;;;;;;5013809;28;20468;-79
2021/03/28 12:43:54;;;;;;;25.15;18.60;;;37.90;22.00;;;;;;5026320;28;20041;-78
2021/03/28 12:46:41;;;;;;;36.45;18.45;;;37.90;22.00;;;;;;5031312;28;20053;-78
2021/03/28 12:49:10;;;;;;;31.10;18.58;;;37.90;21.90;;;;;;5033992;28;20056;-78
2021/03/28 12:51:38;;;;;;;25.65;18.27;;;37.80;21.90;;;;;;5029216;28;20105;-79
2021/03/28 12:54:23;;;;;;;24.92;17.52;;;37.90;21.90;;;;;;5013087;28;20087;-78
2021/03/28 12:56:51;;;;;;;23.85;16.52;;;38.00;21.90;;;;;;5013719;28;20033;-80
2021/03/28 12:59:35;;;;;;;27.33;17.17;;;38.00;21.90;;;;;;5012152;28;20032;-78
2021/03/28 13:02:26;;;;;;;25.02;17.95;;;38.10;21.80;;;;;;5013759;28;20052;-78
2021/03/28 13:05:15;;;;;;;21.38;16.30;;;38.10;21.90;;;;;;5030320;28;20034;-78
2021/03/28 13:07:57;;;;;;;25.17;16.98;;;38.20;21.80;;;;;;5033518;28;20083;-78
2021/03/28 13:10:33;;;;;;;22.13;17.50;;;38.20;21.80;;;;;;5021598;28;20465;-79
2021/03/28 13:13:14;;;;;;;44.13;18.15;;;38.30;21.80;;;;;;4993581;28;20043;-78
2021/03/28 13:15:45;;;;;;;27.30;17.60;;;38.20;21.80;;;;;;4993831;28;20223;-79
2021/03/28 13:18:31;;;;;;;32.25;16.88;;;38.20;21.80;;;;;;4992773;28;20022;-78
2021/03/28 13:21:20;;;;;;;24.35;15.93;;;37.90;21.70;;;;;;4992493;28;20034;-78
2021/03/28 13:23:46;;;;;;;18.27;15.73;;;37.80;21.70;;;;;;4998566;28;20097;-80
2021/03/28 13:26:16;;;;;;;20.63;16.00;;;37.90;21.80;;;;;;4993785;28;20034;-79
2021/03/28 13:29:12;;;;;;;20.80;16.27;;;37.70;21.70;;;;;;4993608;28;20062;-78
2021/03/28 13:31:38;;;;;;;20.58;16.60;;;37.40;21.60;;;;;;5009900;28;20051;-79
2021/03/28 13:34:38;;;;;;;21.58;16.83;;;37.20;21.70;;;;;;5032876;28;20463;-79
2021/03/28 13:37:26;;;;;;;20.48;15.65;;;37.00;21.80;;;;;;5007570;28;20493;-79
2021/03/28 13:39:54;;;;;;;17.73;15.13;;;37.00;21.90;;;;;;5033173;28;20033;-78
2021/03/28 13:42:29;;;;;;;20.40;16.25;;;36.90;21.90;;;;;;5036676;28;20052;-78
2021/03/28 13:45:08;;;;;;;25.35;15.98;;;36.90;21.90;;;;;;5036609;28;20025;-79
2021/03/28 13:47:45;;;;;;;19.58;16.00;;;36.70;21.80;;;;;;5036979;28;20026;-78
2021/03/28 13:50:28;;;;;;;20.27;15.60;;;36.60;21.90;;;;;;5035748;28;20404;-78
2021/03/28 13:52:55;;;;;;;18.45;15.43;;;36.30;21.80;;;;;;5016082;28;20381;-79
2021/03/28 13:55:59;;;;;;;21.33;15.45;;;36.10;21.90;;;;;;5016485;28;20104;-79
2021/03/28 13:58:30;;;;;;;21.48;14.52;;;35.90;21.90;;;;;;4988408;28;20042;-78
2021/03/28 14:01:19;;;;;;;18.02;14.52;;;35.70;21.80;;;;;;5039101;28;20474;-79